Time;durP1;ratioP1;P1;durP2;ratioP2;P2;SDS_P1;SDS_P2;PMS_P1;PMS_P2;Temp;Humidity;BMP_temperature;BMP_pressure;BME280_temperature;BME280_humidity;BME280_pressure;Samples;Min_cycle;Max_cycle;Signal;HPM_P1;HPM_P2
2022/02/22 00:00:34;;;;;;;11.85;3.70;;;3.20;88.50;;;;;;4383146;28;656929;-74
2022/02/22 00:03:23;;;;;;;8.85;3.28;;;3.20;90.10;;;;;;4385033;28;656340;-73
2022/02/22 00:06:11;;;;;;;11.80;4.10;;;3.10;90.70;;;;;;4390417;28;655608;-73
2022/02/22 00:08:58;;;;;;;13.27;4.03;;;3.20;90.60;;;;;;4409935;28;656970;-73
2022/02/22 00:11:46;;;;;;;12.63;3.60;;;3.20;91.00;;;;;;4388996;28;656752;-73
2022/02/22 00:14:35;;;;;;;15.27;3.53;;;3.20;90.60;;;;;;4408611;28;657168;-73
2022/02/22 00:17:22;;;;;;;9.87;3.00;;;3.20;91.10;;;;;;4389413;28;657899;-73
2022/02/22 00:20:10;;;;;;;10.80;3.17;;;3.30;91.10;;;;;;4408302;28;655319;-72
2022/02/22 00:22:58;;;;;;;9.20;3.00;;;3.30;91.10;;;;;;4385968;28;657341;-73
2022/02/22 00:25:46;;;;;;;9.30;2.80;;;3.40;90.30;;;;;;4387060;28;656092;-73
2022/02/22 00:28:33;;;;;;;13.87;3.07;;;3.50;90.70;;;;;;4407296;28;656372;-73
2022/02/22 00:31:23;;;;;;;9.47;2.70;;;3.50;89.80;;;;;;4390318;28;656606;-73
2022/02/22 00:34:10;;;;;;;7.00;2.33;;;3.60;89.10;;;;;;4401765;28;656107;-74
2022/02/22 00:36:58;;;;;;;9.43;2.37;;;3.60;89.00;;;;;;4411455;28;656108;-73
2022/02/22 00:39:46;;;;;;;8.03;2.80;;;3.60;87.90;;;;;;4390041;28;655654;-73
2022/02/22 00:42:33;;;;;;;7.33;2.53;;;3.60;88.20;;;;;;4414726;28;656072;-73
2022/02/22 00:45:21;;;;;;;7.80;2.23;;;3.60;89.70;;;;;;4387354;28;655433;-75
2022/02/22 00:48:10;;;;;;;9.20;1.97;;;3.80;87.30;;;;;;4415707;28;656038;-73
2022/02/22 00:50:57;;;;;;;6.33;2.43;;;3.80;88.00;;;;;;4394594;28;655877;-73
2022/02/22 00:53:45;;;;;;;7.60;2.07;;;3.90;86.70;;;;;;4420499;28;655534;-73
2022/02/22 00:56:32;;;;;;;8.70;2.17;;;3.80;86.60;;;;;;4401559;28;656469;-73
2022/02/22 00:59:20;;;;;;;7.57;1.80;;;3.80;88.40;;;;;;4411307;28;655875;-73
2022/02/22 01:02:07;;;;;;;7.43;2.20;;;3.80;87.90;;;;;;4387558;28;656439;-73
2022/02/22 01:04:56;;;;;;;6.50;1.83;;;3.90;87.60;;;;;;4413396;28;655595;-73
2022/02/22 01:07:44;;;;;;;6.47;1.87;;;4.00;86.60;;;;;;4389341;28;656400;-73
2022/02/22 01:10:31;;;;;;;7.00;2.17;;;4.00;86.70;;;;;;4389784;28;655437;-73
2022/02/22 01:13:20;;;;;;;7.03;2.10;;;4.00;87.70;;;;;;4408745;28;655679;-73
2022/02/22 01:16:07;;;;;;;4.77;1.37;;;4.00;87.70;;;;;;4385484;28;656253;-73
2022/02/22 01:18:55;;;;;;;5.60;1.90;;;4.00;86.90;;;;;;4406245;28;655382;-73
2022/02/22 01:21:44;;;;;;;6.37;2.27;;;4.00;88.10;;;;;;4384209;28;656497;-73
2022/02/22 01:24:32;;;;;;;5.60;2.03;;;4.00;88.70;;;;;;4387126;28;655487;-74
2022/02/22 01:27:20;;;;;;;7.40;2.00;;;3.90;90.10;;;;;;4409768;28;656146;-73
2022/02/22 01:30:08;;;;;;;2.97;1.33;;;4.00;90.40;;;;;;4385282;28;657170;-73
2022/02/22 01:32:55;;;;;;;5.97;1.90;;;3.90;90.70;;;;;;4387902;28;655755;-73
2022/02/22 01:35:43;;;;;;;7.00;1.67;;;4.00;90.40;;;;;;4396030;28;656415;-73
2022/02/22 01:38:33;;;;;;;6.60;2.10;;;4.00;90.90;;;;;;4390988;28;655348;-73
2022/02/22 01:41:21;;;;;;;6.23;1.93;;;4.10;90.20;;;;;;4399640;28;656825;-73
2022/02/22 01:44:08;;;;;;;7.77;2.53;;;4.00;90.30;;;;;;4409880;28;656364;-73
2022/02/22 01:46:56;;;;;;;8.35;2.67;;;4.00;91.40;;;;;;4389857;28;655148;-73
2022/02/22 01:49:44;;;;;;;9.23;2.67;;;4.00;91.20;;;;;;4409540;28;655939;-73
2022/02/22 01:52:32;;;;;;;9.90;2.50;;;4.00;91.00;;;;;;4371727;28;655515;-74
2022/02/22 01:55:21;;;;;;;6.70;2.60;;;4.00;91.10;;;;;;4396077;28;657154;-73
2022/02/22 01:58:08;;;;;;;9.03;2.37;;;4.00;91.90;;;;;;4373758;28;655958;-73
2022/02/22 02:00:56;;;;;;;8.03;1.90;;;4.00;92.20;;;;;;4374213;28;655553;-73
2022/02/22 02:03:45;;;;;;;8.23;2.43;;;4.00;92.40;;;;;;4398729;28;656606;-73
2022/02/22 02:06:33;;;;;;;9.10;2.23;;;4.00;91.80;;;;;;4373186;28;655898;-73
2022/02/22 02:09:20;;;;;;;5.60;2.10;;;4.00;92.60;;;;;;4380652;28;656859;-73
2022/02/22 02:12:10;;;;;;;11.00;2.10;;;4.00;92.30;;;;;;4397528;28;656281;-73
2022/02/22 02:14:57;;;;;;;6.17;2.20;;;4.10;92.50;;;;;;4376063;28;658627;-73
2022/02/22 02:17:45;;;;;;;7.03;2.20;;;4.10;91.50;;;;;;4397791;28;655908;-73
2022/02/22 02:20:32;;;;;;;3.50;1.70;;;4.10;91.50;;;;;;4377729;28;657457;-73
2022/02/22 02:23:21;;;;;;;6.20;1.90;;;4.10;92.40;;;;;;4390728;28;655323;-73
2022/02/22 02:26:09;;;;;;;9.97;1.97;;;4.10;92.10;;;;;;4372881;28;656048;-73
2022/02/22 02:28:56;;;;;;;5.07;1.80;;;4.10;92.80;;;;;;4369177;28;656324;-73
2022/02/22 02:31:45;;;;;;;5.60;1.73;;;4.10;93.20;;;;;;4377941;28;655537;-73
2022/02/22 02:34:32;;;;;;;7.90;2.10;;;4.10;93.00;;;;;;4366053;28;656959;-73
2022/02/22 02:37:20;;;;;;;8.70;2.30;;;4.10;93.50;;;;;;4397760;28;655265;-73
2022/02/22 02:40:10;;;;;;;7.63;2.20;;;4.00;94.40;;;;;;4372423;28;656263;-74
2022/02/22 02:42:58;;;;;;;6.57;2.07;;;3.90;96.10;;;;;;4366022;28;656080;-73
2022/02/22 02:45:46;;;;;;;5.57;1.73;;;3.90;97.70;;;;;;4388158;28;655692;-73
2022/02/22 02:48:33;;;;;;;7.97;1.77;;;3.90;99.60;;;;;;4391252;28;656330;-72
2022/02/22 02:51:21;;;;;;;7.93;2.00;;;3.90;99.90;;;;;;4387307;28;656655;-73
2022/02/22 02:54:08;;;;;;;5.30;1.87;;;3.90;99.90;;;;;;4412766;28;656119;-74
2022/02/22 02:56:57;;;;;;;4.80;1.63;;;3.80;99.90;;;;;;4389214;28;655423;-73
2022/02/22 02:59:47;;;;;;;9.17;2.20;;;3.80;99.90;;;;;;4402556;28;655313;-73
2022/02/22 03:02:34;;;;;;;5.33;1.87;;;3.80;99.90;;;;;;4385026;28;655838;-73
2022/02/22 03:05:22;;;;;;;5.37;1.90;;;3.70;99.90;;;;;;4390716;28;656116;-73
2022/02/22 03:08:10;;;;;;;5.50;1.90;;;3.70;99.90;;;;;;4409293;28;655636;-73
2022/02/22 03:10:57;;;;;;;7.63;2.20;;;3.70;99.90;;;;;;4379412;28;657018;-75
2022/02/22 03:13:46;;;;;;;9.40;2.40;;;3.70;99.90;;;;;;4411804;28;655512;-73
2022/02/22 03:16:34;;;;;;;7.93;2.30;;;3.60;99.90;;;;;;4383478;28;656346;-73
2022/02/22 03:19:21;;;;;;;4.93;2.43;;;3.60;99.90;;;;;;4388271;28;656747;-74
2022/02/22 03:22:09;;;;;;;6.77;2.70;;;3.60;99.90;;;;;;4421235;28;657134;-73
2022/02/22 03:24:56;;;;;;;7.00;3.00;;;3.60;99.90;;;;;;4384389;28;655870;-73
2022/02/22 03:27:44;;;;;;;2.17;1.83;;;3.50;99.90;;;;;;4406427;28;656230;-73
2022/02/22 03:30:33;;;;;;;4.47;2.23;;;3.50;99.90;;;;;;4390352;28;655398;-73
2022/02/22 03:33:21;;;;;;;2.93;2.10;;;3.40;99.90;;;;;;4395824;28;656293;-73
2022/02/22 03:36:08;;;;;;;3.43;2.30;;;3.30;99.90;;;;;;4413609;28;656781;-73
2022/02/22 03:38:56;;;;;;;2.58;1.83;;;3.20;99.90;;;;;;4388569;28;655606;-72
2022/02/22 03:41:43;;;;;;;4.60;2.37;;;3.20;99.90;;;;;;4411737;28;655733;-73
2022/02/22 03:44:31;;;;;;;3.20;2.20;;;3.10;99.90;;;;;;4385136;28;655809;-72
2022/02/22 03:47:20;;;;;;;4.47;2.67;;;3.10;99.90;;;;;;4409257;28;656389;-73
2022/02/22 03:50:08;;;;;;;5.17;3.13;;;3.00;99.90;;;;;;4385315;28;656028;-73
2022/02/22 03:52:56;;;;;;;5.67;3.20;;;3.00;99.90;;;;;;4383306;28;655654;-73
2022/02/22 03:55:43;;;;;;;4.43;2.80;;;3.00;99.90;;;;;;4405686;28;656704;-73
2022/02/22 03:58:31;;;;;;;4.47;3.10;;;2.90;99.90;;;;;;4390115;28;655409;-73
2022/02/22 04:01:18;;;;;;;3.30;2.42;;;2.90;99.90;;;;;;4407421;28;656684;-73
2022/02/22 04:04:07;;;;;;;4.03;1.77;;;2.80;99.90;;;;;;4390726;28;656035;-73
2022/02/22 04:06:56;;;;;;;4.83;1.67;;;2.80;99.90;;;;;;4409855;28;655615;-73
2022/02/22 04:09:43;;;;;;;3.57;2.07;;;2.80;99.90;;;;;;4406732;28;656327;-73
2022/02/22 04:12:31;;;;;;;3.57;2.03;;;2.80;99.90;;;;;;4395886;28;655562;-73
2022/02/22 04:15:18;;;;;;;4.90;1.90;;;2.80;99.90;;;;;;4413689;28;656295;-73
2022/02/22 04:18:06;;;;;;;3.10;2.13;;;2.80;99.90;;;;;;4395859;28;656102;-73
2022/02/22 04:20:55;;;;;;;2.60;1.87;;;2.80;99.90;;;;;;4410791;28;656498;-73
2022/02/22 04:23:42;;;;;;;2.87;2.00;;;2.70;99.90;;;;;;4387651;28;656008;-73
2022/02/22 04:26:30;;;;;;;3.50;1.83;;;2.80;99.90;;;;;;4414033;28;655238;-73
2022/02/22 04:29:18;;;;;;;3.77;1.80;;;2.70;99.90;;;;;;4414577;28;657180;-73
2022/02/22 04:32:06;;;;;;;3.37;1.70;;;2.70;99.90;;;;;;4396441;28;655372;-72
2022/02/22 04:34:53;;;;;;;3.33;2.13;;;2.60;99.90;;;;;;4415348;28;655373;-73
2022/02/22 04:37:42;;;;;;;3.77;2.10;;;2.50;99.90;;;;;;4396441;28;656156;-73
2022/02/22 04:40:30;;;;;;;3.27;1.80;;;2.50;99.90;;;;;;4417229;28;655952;-73
2022/02/22 04:43:17;;;;;;;2.73;1.47;;;2.40;99.90;;;;;;4397659;28;657177;-73
2022/02/22 04:46:05;;;;;;;2.83;1.83;;;2.30;99.90;;;;;;4416545;28;655871;-73
2022/02/22 04:48:53;;;;;;;6.13;2.17;;;2.30;99.90;;;;;;4408227;28;657116;-73
2022/02/22 04:51:41;;;;;;;5.40;2.20;;;2.20;99.90;;;;;;4378485;28;655319;-72
2022/02/22 04:54:30;;;;;;;5.10;2.23;;;2.10;99.90;;;;;;4415914;28;655930;-73
2022/02/22 04:57:18;;;;;;;4.83;2.30;;;2.10;99.90;;;;;;4391196;28;656417;-73
2022/02/22 05:00:07;;;;;;;6.72;2.90;;;2.00;99.90;;;;;;4400026;28;655871;-73
2022/02/22 05:02:54;;;;;;;5.13;3.00;;;2.00;99.90;;;;;;4409280;28;655836;-73
2022/02/22 05:05:42;;;;;;;4.40;2.10;;;2.00;99.90;;;;;;4388865;28;655398;-73
2022/02/22 05:08:29;;;;;;;5.37;2.87;;;2.00;99.90;;;;;;4416556;28;654980;-73
2022/02/22 05:11:18;;;;;;;5.80;3.13;;;2.00;99.90;;;;;;4393284;28;655744;-73
2022/02/22 05:14:06;;;;;;;7.77;3.00;;;2.00;99.90;;;;;;4398767;28;655971;-72
2022/02/22 05:16:53;;;;;;;6.27;2.27;;;2.10;99.90;;;;;;4412652;28;657269;-73
2022/02/22 05:19:41;;;;;;;6.03;3.13;;;2.00;99.90;;;;;;4396661;28;656038;-74
2022/02/22 05:22:29;;;;;;;10.10;3.80;;;2.00;99.90;;;;;;4414609;28;656142;-73
2022/02/22 05:25:16;;;;;;;11.23;4.10;;;1.90;99.90;;;;;;4394973;28;657789;-73
2022/02/22 05:28:05;;;;;;;8.60;3.60;;;1.90;99.90;;;;;;4412452;28;656487;-74
2022/02/22 05:30:53;;;;;;;6.23;3.10;;;2.00;99.90;;;;;;4389142;28;656246;-73
2022/02/22 05:33:41;;;;;;;7.13;3.33;;;2.00;99.90;;;;;;4387729;28;655166;-73
2022/02/22 05:36:28;;;;;;;9.90;3.17;;;2.00;99.90;;;;;;4414432;28;655874;-73
2022/02/22 05:39:16;;;;;;;8.50;3.42;;;2.00;99.90;;;;;;4396312;28;656139;-73
2022/02/22 05:42:03;;;;;;;6.63;2.50;;;2.00;99.90;;;;;;4412794;28;656124;-73
2022/02/22 05:44:52;;;;;;;8.87;2.80;;;2.00;99.90;;;;;;4390606;28;655326;-73
2022/02/22 05:47:41;;;;;;;6.77;2.53;;;2.00;99.90;;;;;;4406528;28;655792;-73
2022/02/22 05:50:28;;;;;;;8.80;2.90;;;2.00;99.90;;;;;;4415242;28;655835;-73
2022/02/22 05:53:16;;;;;;;11.30;3.60;;;2.00;99.90;;;;;;4396756;28;655503;-73
2022/02/22 05:56:03;;;;;;;8.53;3.07;;;2.00;99.90;;;;;;4414600;28;657568;-73
2022/02/22 05:58:51;;;;;;;7.97;2.83;;;2.00;99.90;;;;;;4390131;28;655751;-73
2022/02/22 06:01:42;;;;;;;11.05;3.28;;;2.00;99.90;;;;;;4413982;28;656451;-73
2022/02/22 06:04:29;;;;;;;14.30;3.27;;;2.00;99.90;;;;;;4389821;28;656686;-73
2022/02/22 06:07:20;;;;;;;11.60;3.00;;;2.00;99.90;;;;;;4391686;28;656423;-74
2022/02/22 06:10:08;;;;;;;10.32;3.30;;;2.00;99.90;;;;;;4398632;28;657508;-73
2022/02/22 06:12:56;;;;;;;8.23;2.50;;;2.00;99.90;;;;;;4397681;28;656744;-73
2022/02/22 06:15:43;;;;;;;10.23;2.97;;;2.00;99.90;;;;;;4418996;28;656616;-73
2022/02/22 06:18:32;;;;;;;10.07;2.70;;;2.00;99.90;;;;;;4392285;28;656872;-73
2022/02/22 06:21:21;;;;;;;7.77;2.77;;;2.10;99.90;;;;;;4403155;28;656636;-73
2022/02/22 06:24:08;;;;;;;14.40;3.67;;;2.00;99.90;;;;;;4415018;28;656121;-73
2022/02/22 06:26:56;;;;;;;11.07;4.10;;;2.00;99.90;;;;;;4389254;28;656582;-73
2022/02/22 06:29:44;;;;;;;12.43;4.20;;;2.10;99.90;;;;;;4405302;28;657322;-74
2022/02/22 06:32:31;;;;;;;10.77;3.33;;;2.00;99.90;;;;;;4387156;28;657311;-73
2022/02/22 06:35:21;;;;;;;14.50;3.77;;;2.10;99.90;;;;;;4404964;28;657070;-73
2022/02/22 06:38:08;;;;;;;11.73;4.10;;;2.10;99.90;;;;;;4389715;28;656493;-73
2022/02/22 06:40:56;;;;;;;11.97;4.10;;;2.10;99.90;;;;;;4393341;28;657992;-73
2022/02/22 06:43:43;;;;;;;12.40;3.40;;;2.10;99.90;;;;;;4399958;28;656785;-73
2022/02/22 06:46:31;;;;;;;8.83;3.93;;;2.10;99.90;;;;;;4383414;28;657162;-73
2022/02/22 06:49:18;;;;;;;9.13;4.30;;;2.10;99.90;;;;;;4409806;28;655805;-73
2022/02/22 06:52:08;;;;;;;16.80;4.70;;;2.20;99.90;;;;;;4389031;28;656068;-73
2022/02/22 06:54:56;;;;;;;11.33;4.77;;;2.30;99.90;;;;;;4387803;28;656598;-73
2022/02/22 06:57:43;;;;;;;12.27;3.53;;;2.30;99.90;;;;;;4738061;28;657562;-73
2022/02/22 07:00:33;;;;;;;15.63;5.33;;;2.40;99.90;;;;;;5044769;28;20573;-73
2022/02/22 07:03:20;;;;;;;9.60;4.17;;;2.50;99.90;;;;;;5045329;28;20197;-73
2022/02/22 07:06:08;;;;;;;15.03;5.77;;;2.60;99.90;;;;;;5044471;28;20212;-73
2022/02/22 07:08:55;;;;;;;15.77;5.10;;;2.60;99.90;;;;;;5044232;28;20240;-73
2022/02/22 07:11:43;;;;;;;14.23;6.13;;;2.70;99.90;;;;;;5039555;28;20733;-73
2022/02/22 07:14:31;;;;;;;13.07;5.30;;;2.80;99.90;;;;;;5040422;28;20230;-73
2022/02/22 07:17:21;;;;;;;10.17;4.33;;;2.80;99.90;;;;;;5045733;28;20220;-73
2022/02/22 07:20:10;;;;;;;17.20;5.03;;;2.90;99.90;;;;;;5049629;28;20209;-73
2022/02/22 07:22:59;;;;;;;6.63;2.90;;;2.80;99.90;;;;;;5044528;28;20617;-73
2022/02/22 07:25:47;;;;;;;11.37;4.67;;;2.80;99.90;;;;;;5048362;28;20711;-73
2022/02/22 07:28:34;;;;;;;14.17;5.10;;;2.90;99.90;;;;;;5050329;28;20209;-72
2022/02/22 07:31:22;;;;;;;11.63;4.47;;;2.90;99.90;;;;;;5036220;28;20371;-73
2022/02/22 07:34:12;;;;;;;14.17;4.00;;;2.90;99.90;;;;;;5048953;28;20243;-73
2022/02/22 07:37:00;;;;;;;13.17;5.10;;;2.80;99.90;;;;;;5045612;28;20212;-73
2022/02/22 07:39:47;;;;;;;11.93;5.00;;;2.90;99.90;;;;;;5046616;28;20573;-73
2022/02/22 07:42:35;;;;;;;14.70;4.90;;;2.80;99.90;;;;;;5046158;28;20774;-73
2022/02/22 07:45:22;;;;;;;11.47;4.30;;;2.80;99.90;;;;;;5043639;28;20251;-73
2022/02/22 07:48:10;;;;;;;15.83;4.23;;;2.80;99.90;;;;;;5044243;28;20240;-73
2022/02/22 07:50:59;;;;;;;12.17;5.63;;;2.90;99.90;;;;;;5049396;28;20716;-73
2022/02/22 07:53:47;;;;;;;17.93;5.50;;;2.90;99.90;;;;;;5046247;28;20217;-73
2022/02/22 07:56:34;;;;;;;11.67;4.53;;;2.90;99.90;;;;;;5044439;28;20247;-73
2022/02/22 07:59:22;;;;;;;8.20;3.53;;;2.90;99.90;;;;;;5046197;28;20201;-73
2022/02/22 08:02:10;;;;;;;9.70;4.37;;;3.00;99.90;;;;;;5047361;28;20197;-73
2022/02/22 08:04:57;;;;;;;17.13;4.47;;;3.00;99.90;;;;;;5041834;28;20605;-73
2022/02/22 08:07:46;;;;;;;13.53;4.47;;;3.10;99.90;;;;;;5046127;28;20287;-73
2022/02/22 08:10:34;;;;;;;13.97;4.97;;;3.20;99.90;;;;;;5046255;28;20228;-73
2022/02/22 08:13:22;;;;;;;14.37;3.87;;;3.30;99.90;;;;;;5046241;28;20592;-75
2022/02/22 08:16:09;;;;;;;8.67;3.13;;;3.50;99.90;;;;;;5030151;28;20210;-74
2022/02/22 08:18:57;;;;;;;10.53;3.47;;;3.50;99.90;;;;;;5035127;28;20541;-74
2022/02/22 08:21:45;;;;;;;10.90;3.57;;;3.60;99.90;;;;;;5050413;28;20205;-74
2022/02/22 08:24:34;;;;;;;8.43;3.50;;;3.70;99.90;;;;;;5044229;28;20202;-74
2022/02/22 08:27:21;;;;;;;13.87;3.77;;;3.80;99.90;;;;;;5042460;28;20273;-74
2022/02/22 08:30:10;;;;;;;9.80;3.57;;;3.70;99.90;;;;;;5038189;28;20688;-74
2022/02/22 08:32:57;;;;;;;14.43;3.10;;;3.80;99.90;;;;;;5031581;28;20704;-74
2022/02/22 08:35:45;;;;;;;8.67;2.80;;;3.80;99.90;;;;;;5040300;28;20207;-74
2022/02/22 08:38:32;;;;;;;10.73;2.67;;;4.00;99.90;;;;;;5034516;28;20692;-75
2022/02/22 08:41:21;;;;;;;9.53;2.57;;;4.10;99.90;;;;;;5032523;28;20206;-75
2022/02/22 08:44:10;;;;;;;7.17;2.80;;;4.20;99.90;;;;;;5050365;28;20228;-74
2022/02/22 08:46:58;;;;;;;7.33;2.27;;;4.30;99.90;;;;;;5050897;28;20736;-73
2022/02/22 08:49:47;;;;;;;6.23;2.90;;;4.40;99.90;;;;;;5058249;28;20382;-74
2022/02/22 08:52:34;;;;;;;5.03;1.80;;;4.40;99.90;;;;;;5057808;28;20315;-74
2022/02/22 08:55:22;;;;;;;8.27;2.80;;;4.40;99.90;;;;;;5053425;28;20197;-74
2022/02/22 08:58:13;;;;;;;6.43;2.13;;;4.60;99.90;;;;;;5064705;28;20201;-74
2022/02/22 09:01:01;;;;;;;10.40;2.40;;;4.70;99.90;;;;;;5059266;28;20209;-74
2022/02/22 09:03:48;;;;;;;6.93;2.10;;;4.80;99.90;;;;;;5038820;28;20197;-75
2022/02/22 09:06:36;;;;;;;7.83;2.63;;;5.10;99.90;;;;;;5056248;28;20210;-74
2022/02/22 09:09:23;;;;;;;4.43;2.20;;;5.20;99.90;;;;;;5061663;28;20239;-74
2022/02/22 09:12:11;;;;;;;9.17;2.73;;;5.10;99.90;;;;;;5061671;28;20327;-75
2022/02/22 09:15:00;;;;;;;6.37;2.60;;;5.00;99.90;;;;;;5060764;28;20259;-75
2022/02/22 09:17:48;;;;;;;4.93;1.77;;;5.00;99.90;;;;;;5050763;28;21163;-75
2022/02/22 09:20:35;;;;;;;3.53;1.67;;;5.00;99.90;;;;;;5056025;28;20200;-75
2022/02/22 09:23:23;;;;;;;3.97;1.70;;;4.90;99.90;;;;;;5060840;28;20230;-75
2022/02/22 09:26:11;;;;;;;4.70;1.73;;;5.00;99.90;;;;;;5062482;28;20205;-75
2022/02/22 09:28:59;;;;;;;5.10;1.70;;;5.00;99.90;;;;;;5062205;28;20688;-75
2022/02/22 09:31:49;;;;;;;3.73;1.60;;;5.10;99.90;;;;;;5061088;28;20200;-75
2022/02/22 09:34:37;;;;;;;8.80;1.97;;;5.10;99.90;;;;;;5053113;28;20224;-76
2022/02/22 09:37:24;;;;;;;4.17;1.80;;;5.10;99.90;;;;;;5055772;28;20208;-75
2022/02/22 09:40:12;;;;;;;6.53;2.13;;;5.10;99.90;;;;;;5064170;28;20338;-74
2022/02/22 09:43:01;;;;;;;4.30;1.63;;;5.10;99.90;;;;;;5052410;28;20209;-74
2022/02/22 09:45:48;;;;;;;3.40;1.60;;;5.10;99.90;;;;;;5059710;28;20204;-74
2022/02/22 09:48:37;;;;;;;4.67;1.70;;;5.10;99.90;;;;;;5031529;28;20213;-75
2022/02/22 09:51:25;;;;;;;5.63;1.80;;;5.10;99.90;;;;;;5040071;28;20735;-76
2022/02/22 09:54:14;;;;;;;7.73;1.90;;;5.20;99.90;;;;;;5020819;28;20221;-75
2022/02/22 09:57:02;;;;;;;4.27;1.90;;;5.10;99.90;;;;;;5042405;28;20276;-76
2022/02/22 09:59:49;;;;;;;5.60;2.53;;;5.20;99.90;;;;;;5040999;28;20650;-75
2022/02/22 10:02:37;;;;;;;10.00;3.07;;;5.20;99.90;;;;;;5039405;28;20240;-74
2022/02/22 10:05:27;;;;;;;8.60;2.90;;;5.20;99.90;;;;;;5037970;28;20210;-74
2022/02/22 10:08:14;;;;;;;11.10;2.60;;;5.50;99.90;;;;;;5034177;28;20583;-75
2022/02/22 10:11:04;;;;;;;11.00;2.53;;;5.50;99.90;;;;;;5041675;28;20700;-75
2022/02/22 10:13:52;;;;;;;5.60;2.50;;;5.60;99.90;;;;;;5041970;28;20217;-74
2022/02/22 10:16:40;;;;;;;3.77;1.47;;;5.50;99.90;;;;;;5043391;28;20262;-74
2022/02/22 10:19:29;;;;;;;5.50;2.13;;;5.30;99.90;;;;;;5036749;28;20206;-74
2022/02/22 10:22:18;;;;;;;4.87;2.07;;;5.10;99.90;;;;;;5037438;28;20725;-76
2022/02/22 10:25:09;;;;;;;8.37;2.33;;;5.10;99.90;;;;;;5039292;28;20673;-75
2022/02/22 10:27:58;;;;;;;5.90;2.30;;;5.10;99.90;;;;;;5034588;28;20200;-75
2022/02/22 10:30:50;;;;;;;3.77;2.00;;;5.00;99.90;;;;;;5040607;28;20209;-74
2022/02/22 10:33:42;;;;;;;3.17;1.53;;;5.00;99.90;;;;;;5040400;28;20368;-74
2022/02/22 10:36:33;;;;;;;5.73;2.10;;;5.10;99.90;;;;;;5042495;28;20201;-75
2022/02/22 10:39:22;;;;;;;6.90;2.37;;;5.20;99.90;;;;;;5039197;28;20198;-75
2022/02/22 10:42:09;;;;;;;5.07;2.00;;;5.30;99.90;;;;;;5039027;28;20202;-74
2022/02/22 10:44:57;;;;;;;5.80;2.37;;;5.30;99.90;;;;;;5036337;28;20198;-75
2022/02/22 10:47:45;;;;;;;7.13;2.17;;;5.30;99.90;;;;;;5037390;28;20193;-75
2022/02/22 10:50:33;;;;;;;5.17;2.30;;;5.40;99.90;;;;;;5036953;28;20746;-75
2022/02/22 10:53:20;;;;;;;2.60;1.90;;;5.50;99.90;;;;;;5044091;28;20213;-75
2022/02/22 10:56:11;;;;;;;5.90;2.37;;;5.70;99.90;;;;;;5043895;28;20198;-75
2022/02/22 10:58:58;;;;;;;5.93;2.73;;;5.70;98.50;;;;;;5036418;28;20237;-75
2022/02/22 11:01:46;;;;;;;5.20;2.10;;;5.60;99.20;;;;;;5034652;28;20665;-73
2022/02/22 11:04:35;;;;;;;6.43;2.50;;;5.50;99.40;;;;;;5037429;28;20668;-73
2022/02/22 11:07:26;;;;;;;10.50;2.63;;;5.40;99.30;;;;;;5038427;28;20604;-76
2022/02/22 11:10:13;;;;;;;9.57;2.80;;;5.40;99.90;;;;;;5033063;28;20229;-75
2022/02/22 11:13:02;;;;;;;4.37;2.30;;;5.40;99.90;;;;;;5039449;28;20350;-75
2022/02/22 11:15:50;;;;;;;4.93;2.90;;;5.20;99.90;;;;;;5040832;28;20201;-75
2022/02/22 11:18:48;;;;;;;5.17;2.63;;;5.20;99.90;;;;;;5033933;28;20217;-76
2022/02/22 11:21:36;;;;;;;8.53;4.00;;;4.80;99.90;;;;;;5035699;28;20209;-75
2022/02/22 11:24:24;;;;;;;9.03;4.43;;;4.70;99.90;;;;;;5034725;28;20201;-76
2022/02/22 11:27:11;;;;;;;10.83;4.30;;;4.90;99.90;;;;;;5040202;28;20209;-76
2022/02/22 11:30:06;;;;;;;9.33;4.20;;;5.00;99.90;;;;;;5032971;28;20209;-75
2022/02/22 11:32:57;;;;;;;9.07;4.03;;;5.50;99.90;;;;;;5040304;28;20197;-74
2022/02/22 11:35:47;;;;;;;11.10;4.57;;;6.10;99.90;;;;;;5037048;28;20200;-75
2022/02/22 11:38:40;;;;;;;6.37;3.37;;;6.50;99.90;;;;;;5035036;28;20668;-76
2022/02/22 11:41:28;;;;;;;8.13;4.73;;;6.70;99.90;;;;;;5036972;28;20346;-76
2022/02/22 11:44:17;;;;;;;7.83;3.97;;;7.20;99.90;;;;;;5031886;28;20576;-75
2022/02/22 11:47:15;;;;;;;7.07;3.53;;;7.40;99.90;;;;;;5041055;28;20209;-75
2022/02/22 11:50:11;;;;;;;6.20;3.60;;;7.80;96.30;;;;;;5034937;28;20285;-75
2022/02/22 11:52:58;;;;;;;7.73;2.87;;;7.80;99.90;;;;;;5024614;28;20680;-75
2022/02/22 11:55:47;;;;;;;5.87;3.30;;;8.00;95.80;;;;;;5023993;28;20277;-75
2022/02/22 11:58:36;;;;;;;3.87;2.53;;;7.70;93.50;;;;;;5027385;28;20219;-75
2022/02/22 12:01:24;;;;;;;6.20;2.80;;;7.20;99.00;;;;;;5013979;28;20213;-76
2022/02/22 12:04:24;;;;;;;7.43;3.30;;;6.80;98.20;;;;;;5022757;28;20294;-75
2022/02/22 12:07:11;;;;;;;6.93;2.83;;;6.40;99.90;;;;;;5025848;28;20288;-75
2022/02/22 12:10:06;;;;;;;7.40;3.20;;;6.30;99.90;;;;;;5022621;28;20595;-75
2022/02/22 12:13:02;;;;;;;7.70;3.07;;;6.20;99.90;;;;;;5024546;28;20221;-75
2022/02/22 12:15:51;;;;;;;8.87;3.27;;;6.00;99.90;;;;;;5019310;28;20190;-75
2022/02/22 12:18:38;;;;;;;6.10;2.67;;;5.80;99.90;;;;;;5024360;28;20206;-77
2022/02/22 12:21:28;;;;;;;5.03;2.67;;;5.50;99.90;;;;;;5027975;28;20202;-76
2022/02/22 12:24:18;;;;;;;6.30;3.10;;;4.80;99.90;;;;;;5028481;28;20629;-74
2022/02/22 12:27:13;;;;;;;7.90;3.07;;;4.50;99.90;;;;;;5028526;28;20661;-76
2022/02/22 12:30:01;;;;;;;5.37;2.47;;;4.40;99.90;;;;;;5024889;28;20210;-75
2022/02/22 12:32:51;;;;;;;10.63;2.40;;;4.20;99.90;;;;;;5032419;28;20667;-75
2022/02/22 12:35:39;;;;;;;5.73;2.17;;;4.20;99.90;;;;;;5028562;28;20260;-75
2022/02/22 12:38:29;;;;;;;5.97;2.60;;;4.30;99.90;;;;;;5023085;28;20205;-75
2022/02/22 12:41:17;;;;;;;6.90;2.30;;;4.30;99.90;;;;;;5030099;28;20209;-75
2022/02/22 12:44:08;;;;;;;15.27;3.37;;;4.30;99.90;;;;;;5027377;28;20602;-76
2022/02/22 12:46:57;;;;;;;9.67;3.43;;;4.30;99.90;;;;;;5030083;28;20200;-75
2022/02/22 12:49:44;;;;;;;12.30;3.67;;;4.40;99.90;;;;;;5024850;28;20206;-75
2022/02/22 12:52:32;;;;;;;17.37;3.73;;;4.60;99.90;;;;;;5042878;28;20252;-76
2022/02/22 12:55:21;;;;;;;12.63;3.30;;;4.60;99.90;;;;;;5037647;28;20623;-75
2022/02/22 12:58:09;;;;;;;17.40;4.10;;;4.60;99.90;;;;;;5048781;28;20584;-75
2022/02/22 13:01:12;;;;;;;12.03;3.50;;;4.60;99.90;;;;;;5044722;28;20209;-75
2022/02/22 13:04:00;;;;;;;14.27;3.47;;;4.60;99.90;;;;;;5036433;28;20664;-75
2022/02/22 13:06:48;;;;;;;13.60;3.30;;;4.70;99.90;;;;;;5045148;28;20767;-75
2022/02/22 13:09:36;;;;;;;9.83;3.00;;;4.80;99.90;;;;;;5036430;28;20252;-75
2022/02/22 13:12:29;;;;;;;14.30;3.93;;;5.20;99.90;;;;;;5038900;28;20220;-75
2022/02/22 13:15:23;;;;;;;17.33;4.10;;;5.40;99.90;;;;;;5046866;28;20312;-74
2022/02/22 13:18:15;;;;;;;19.13;3.50;;;5.50;99.90;;;;;;5037119;28;20204;-75
2022/02/22 13:21:11;;;;;;;14.30;3.60;;;5.30;99.90;;;;;;5039270;28;20244;-75
2022/02/22 13:24:01;;;;;;;13.93;3.40;;;5.00;99.90;;;;;;5039717;28;20681;-75
2022/02/22 13:26:49;;;;;;;14.33;3.33;;;5.00;99.90;;;;;;5041366;28;20205;-74
2022/02/22 13:29:38;;;;;;;15.43;3.30;;;5.00;99.90;;;;;;5040889;28;20207;-75
2022/02/22 13:32:29;;;;;;;10.87;3.13;;;4.90;99.90;;;;;;5045144;28;20791;-76
2022/02/22 13:35:18;;;;;;;16.27;4.00;;;4.80;99.90;;;;;;5041145;28;20279;-75
2022/02/22 13:38:15;;;;;;;9.60;2.53;;;4.60;98.00;;;;;;5044824;28;20665;-75
2022/02/22 13:41:10;;;;;;;16.10;4.17;;;4.50;96.40;;;;;;5043515;28;20316;-76
2022/02/22 13:43:58;;;;;;;17.00;4.07;;;4.40;96.00;;;;;;5046049;28;20189;-75
2022/02/22 13:46:51;;;;;;;15.20;4.07;;;4.40;95.70;;;;;;5042485;28;20558;-76
2022/02/22 13:49:46;;;;;;;24.00;4.30;;;4.40;96.70;;;;;;5044038;28;20213;-76
2022/02/22 13:52:34;;;;;;;18.57;4.00;;;4.40;97.60;;;;;;5041328;28;20241;-75
2022/02/22 13:55:21;;;;;;;14.80;3.83;;;4.50;97.20;;;;;;5044601;28;20684;-76
2022/02/22 13:58:09;;;;;;;14.07;3.90;;;4.50;92.90;;;;;;5044611;28;20947;-75
2022/02/22 14:00:57;;;;;;;12.07;2.87;;;4.60;88.30;;;;;;5048018;28;20630;-76
2022/02/22 14:03:46;;;;;;;14.40;3.57;;;4.70;84.60;;;;;;5044672;28;20394;-75
2022/02/22 14:06:34;;;;;;;20.33;3.60;;;4.70;83.00;;;;;;5040272;28;20205;-75
2022/02/22 14:09:21;;;;;;;12.40;3.17;;;4.70;80.10;;;;;;5044353;28;20205;-75
2022/02/22 14:12:09;;;;;;;20.13;4.17;;;4.80;79.80;;;;;;5043419;28;20287;-76
2022/02/22 14:14:57;;;;;;;13.27;3.17;;;4.70;78.00;;;;;;5041990;28;20308;-76
2022/02/22 14:17:45;;;;;;;15.30;3.00;;;4.60;72.50;;;;;;5037977;28;20209;-75
2022/02/22 14:20:34;;;;;;;15.23;2.53;;;4.60;73.50;;;;;;5037217;28;20214;-75
2022/02/22 14:23:25;;;;;;;14.10;2.30;;;4.50;71.50;;;;;;5042297;28;20319;-76
2022/02/22 14:26:12;;;;;;;9.97;2.50;;;4.40;69.60;;;;;;5038888;28;20205;-75
2022/02/22 14:29:00;;;;;;;13.67;3.07;;;4.40;70.00;;;;;;5040458;28;20205;-75
2022/02/22 14:31:48;;;;;;;11.70;2.60;;;4.50;69.20;;;;;;5041176;28;20205;-77
2022/02/22 14:34:35;;;;;;;15.67;3.17;;;4.60;68.90;;;;;;5036797;28;20213;-76
2022/02/22 14:37:24;;;;;;;8.50;2.23;;;4.60;67.70;;;;;;5042354;28;20761;-76